QTR77 OOMS-ORBI
Flight info
| Callsign | QTR77 |
|---|---|
| Flight time | N/A |
| Altitude | 30000 |
| Route | DCT GERAR B540 MIVEK P574 RUKOR N571 IVOXI M557 TUMAK L602 DAMUR L934 ITEVO L602 RALKA G795 TASMI L602 ALPET DCT LOVEK DCT |
| Aircraft | A332/H-SDE3GHIJ2J3J5M1RVWXY/LB2D1 |
Departure
| Time | 2026-04-27 09:28 |
|---|---|
| Airport | Muscat International Airport (OOMS) |
Arrival
| Time | N/A |
|---|---|
| Airport | Baghdad International Airport / New Al Muthana Air Base (ORBI) |
| Time | Latitude | Longitude | Altitude | Speed | Heading |
|---|---|---|---|---|---|
| 2026-04-27 09:23 | 23.60293 | 58.27672 | 43 ft | 0 kts | 220° |
| 2026-04-27 09:25 | 23.60318 | 58.27695 | 42 ft | 0 kts | 40° |
| 2026-04-27 09:25 | 23.60732 | 58.29684 | 38 ft | 0 kts | 33° |
| 2026-04-27 09:26 | 23.60739 | 58.29689 | 39 ft | 3 kts | 33° |
| 2026-04-27 09:26 | 23.60763 | 58.29698 | 39 ft | 5 kts | 13° |
| 2026-04-27 09:27 | 23.60806 | 58.29701 | 38 ft | 7 kts | 359° |
| 2026-04-27 09:27 | 23.60867 | 58.29684 | 38 ft | 13 kts | 331° |
| 2026-04-27 09:27 | 23.60898 | 58.29620 | 39 ft | 18 kts | 271° |
| 2026-04-27 09:27 | 23.60883 | 58.29440 | 39 ft | 36 kts | 264° |
| 2026-04-27 09:28 | 23.60837 | 58.28904 | 42 ft | 112 kts | 264° |
| 2026-04-27 09:28 | 23.60751 | 58.27750 | 102 ft | 187 kts | 266° |
| 2026-04-27 09:28 | 23.60645 | 58.26276 | 1122 ft | 201 kts | 266° |
| 2026-04-27 09:28 | 23.60482 | 58.24693 | 2269 ft | 224 kts | 267° |
| 2026-04-27 09:29 | 23.60341 | 58.22890 | 2822 ft | 254 kts | 267° |
| 2026-04-27 09:29 | 23.60195 | 58.20917 | 2949 ft | 264 kts | 267° |
| 2026-04-27 09:29 | 23.60043 | 58.18920 | 2987 ft | 263 kts | 266° |
| 2026-04-27 09:29 | 23.59888 | 58.16947 | 3000 ft | 260 kts | 266° |
| 2026-04-27 09:30 | 23.59733 | 58.14988 | 2997 ft | 259 kts | 267° |
| 2026-04-27 09:30 | 23.59573 | 58.13029 | 3199 ft | 261 kts | 266° |
| 2026-04-27 09:30 | 23.59412 | 58.11037 | 3839 ft | 264 kts | 266° |
| 2026-04-27 09:30 | 23.59253 | 58.09053 | 4761 ft | 261 kts | 266° |
| 2026-04-27 09:31 | 23.59099 | 58.07079 | 5619 ft | 261 kts | 266° |
| 2026-04-27 09:31 | 23.59125 | 58.05124 | 6428 ft | 262 kts | 278° |
| 2026-04-27 09:31 | 23.59660 | 58.03209 | 7188 ft | 268 kts | 296° |
| 2026-04-27 09:31 | 23.60631 | 58.01455 | 7969 ft | 273 kts | 304° |
| 2026-04-27 09:32 | 23.61775 | 57.99782 | 8756 ft | 278 kts | 308° |
| 2026-04-27 09:32 | 23.63017 | 57.98132 | 9596 ft | 283 kts | 309° |
| 2026-04-27 09:32 | 23.64302 | 57.96477 | 10371 ft | 287 kts | 309° |
| 2026-04-27 09:32 | 23.65600 | 57.94806 | 11194 ft | 290 kts | 309° |
| 2026-04-27 09:33 | 23.66910 | 57.93103 | 11982 ft | 295 kts | 308° |
| 2026-04-27 09:33 | 23.68226 | 57.91365 | 12758 ft | 299 kts | 308° |
| 2026-04-27 09:33 | 23.69555 | 57.89587 | 13507 ft | 306 kts | 307° |
| 2026-04-27 09:33 | 23.70933 | 57.87725 | 13869 ft | 325 kts | 306° |
| 2026-04-27 09:34 | 23.72374 | 57.85762 | 14133 ft | 345 kts | 307° |
| 2026-04-27 09:34 | 23.73906 | 57.83667 | 14537 ft | 359 kts | 307° |
| 2026-04-27 09:34 | 23.75475 | 57.81531 | 15224 ft | 361 kts | 307° |
| 2026-04-27 09:34 | 23.77053 | 57.79378 | 15923 ft | 365 kts | 307° |
| 2026-04-27 09:35 | 23.78643 | 57.77206 | 16617 ft | 368 kts | 307° |
| 2026-04-27 09:35 | 23.80245 | 57.75013 | 17327 ft | 370 kts | 307° |
| 2026-04-27 09:35 | 23.81855 | 57.72809 | 18030 ft | 373 kts | 307° |
| 2026-04-27 09:35 | 23.83480 | 57.70584 | 18634 ft | 376 kts | 307° |
| 2026-04-27 09:36 | 23.85119 | 57.68338 | 19182 ft | 379 kts | 307° |
| 2026-04-27 09:36 | 23.86768 | 57.66078 | 19751 ft | 382 kts | 307° |
| 2026-04-27 09:36 | 23.88413 | 57.63826 | 20324 ft | 384 kts | 307° |
| 2026-04-27 09:36 | 23.90088 | 57.61530 | 20894 ft | 387 kts | 306° |
| 2026-04-27 09:37 | 23.91774 | 57.59219 | 21482 ft | 390 kts | 306° |
| 2026-04-27 09:37 | 23.93474 | 57.56887 | 22048 ft | 393 kts | 306° |
| 2026-04-27 09:37 | 23.95183 | 57.54542 | 22606 ft | 396 kts | 306° |
| 2026-04-27 09:37 | 23.96908 | 57.52175 | 23202 ft | 398 kts | 306° |
| 2026-04-27 09:38 | 23.98618 | 57.49828 | 23713 ft | 400 kts | 306° |
| 2026-04-27 09:38 | 24.00358 | 57.47438 | 24155 ft | 403 kts | 306° |
| 2026-04-27 09:38 | 24.02110 | 57.45028 | 24589 ft | 406 kts | 306° |
| 2026-04-27 09:38 | 24.03874 | 57.42600 | 25032 ft | 409 kts | 306° |
| 2026-04-27 09:39 | 24.05645 | 57.40159 | 25463 ft | 411 kts | 306° |
| 2026-04-27 09:39 | 24.07428 | 57.37702 | 25910 ft | 414 kts | 306° |
| 2026-04-27 09:39 | 24.09222 | 57.35226 | 26325 ft | 416 kts | 306° |
| 2026-04-27 09:39 | 24.11027 | 57.32735 | 26746 ft | 419 kts | 306° |
| 2026-04-27 09:40 | 24.12842 | 57.30228 | 27160 ft | 422 kts | 306° |
| 2026-04-27 09:40 | 24.14667 | 57.27706 | 27581 ft | 424 kts | 306° |
| 2026-04-27 09:40 | 24.16506 | 57.25164 | 28015 ft | 427 kts | 306° |
| 2026-04-27 09:40 | 24.18340 | 57.22629 | 28418 ft | 429 kts | 306° |
| 2026-04-27 09:41 | 24.20201 | 57.20056 | 28831 ft | 432 kts | 306° |
| 2026-04-27 09:41 | 24.22072 | 57.17466 | 29216 ft | 435 kts | 306° |
| 2026-04-27 09:41 | 24.23954 | 57.14860 | 29609 ft | 437 kts | 306° |
| 2026-04-27 09:41 | 24.25845 | 57.12241 | 29823 ft | 435 kts | 306° |
| 2026-04-27 09:42 | 24.27692 | 57.09683 | 29839 ft | 421 kts | 306° |
| 2026-04-27 09:42 | 24.31257 | 57.04741 | 29843 ft | 410 kts | 306° |
| 2026-04-27 09:43 | 24.34790 | 56.99822 | 29842 ft | 411 kts | 306° |
| 2026-04-27 09:43 | 24.38328 | 56.94895 | 29847 ft | 411 kts | 306° |
| 2026-04-27 09:44 | 24.41869 | 56.89965 | 29825 ft | 411 kts | 306° |
| 2026-04-27 09:44 | 24.45389 | 56.85060 | 29829 ft | 411 kts | 306° |
| 2026-04-27 09:45 | 24.48929 | 56.80126 | 29823 ft | 410 kts | 306° |
| 2026-04-27 09:45 | 24.52460 | 56.75198 | 29823 ft | 410 kts | 306° |
| 2026-04-27 09:46 | 24.55963 | 56.70304 | 29837 ft | 410 kts | 305° |
| 2026-04-27 09:46 | 24.59477 | 56.65390 | 29823 ft | 409 kts | 305° |
| 2026-04-27 09:47 | 24.62994 | 56.60468 | 29860 ft | 408 kts | 305° |
| 2026-04-27 09:47 | 24.66510 | 56.55541 | 29851 ft | 408 kts | 305° |
| 2026-04-27 09:48 | 24.69994 | 56.50656 | 29867 ft | 408 kts | 305° |
| 2026-04-27 09:48 | 24.73501 | 56.45732 | 29859 ft | 408 kts | 305° |
| 2026-04-27 09:49 | 24.77005 | 56.40808 | 29881 ft | 408 kts | 305° |
| 2026-04-27 09:49 | 24.80508 | 56.35880 | 29870 ft | 408 kts | 305° |
| 2026-04-27 09:50 | 24.84020 | 56.30933 | 29868 ft | 417 kts | 305° |
| 2026-04-27 09:50 | 24.87585 | 56.25776 | 29866 ft | 424 kts | 300° |
| 2026-04-27 09:51 | 24.90595 | 56.20253 | 29887 ft | 422 kts | 297° |
| 2026-04-27 09:51 | 24.93469 | 56.14610 | 29887 ft | 422 kts | 296° |
| 2026-04-27 09:52 | 24.96327 | 56.08956 | 29886 ft | 421 kts | 296° |
| 2026-04-27 09:52 | 24.99235 | 56.03395 | 29888 ft | 421 kts | 298° |
| 2026-04-27 09:53 | 25.02278 | 55.97863 | 29886 ft | 421 kts | 298° |
| 2026-04-27 09:53 | 25.05348 | 55.92353 | 29887 ft | 422 kts | 299° |
| 2026-04-27 09:54 | 25.08419 | 55.86825 | 29879 ft | 422 kts | 298° |
| 2026-04-27 09:54 | 25.11473 | 55.81296 | 29878 ft | 422 kts | 298° |
| 2026-04-27 09:55 | 25.14699 | 55.75890 | 29879 ft | 423 kts | 304° |
| 2026-04-27 09:55 | 25.20277 | 55.68393 | 29871 ft | 423 kts | 307° |
| 2026-04-27 09:56 | 25.24108 | 55.63462 | 29864 ft | 423 kts | 307° |
| 2026-04-27 09:56 | 25.27937 | 55.58531 | 29862 ft | 423 kts | 307° |
| 2026-04-27 09:57 | 25.31718 | 55.53561 | 29884 ft | 421 kts | 303° |
| 2026-04-27 09:57 | 25.34721 | 55.48065 | 29884 ft | 416 kts | 294° |
| 2026-04-27 09:58 | 25.37230 | 55.42365 | 29885 ft | 415 kts | 292° |
| 2026-04-27 09:58 | 25.39640 | 55.36558 | 29876 ft | 415 kts | 292° |
| 2026-04-27 09:59 | 25.42028 | 55.30789 | 29852 ft | 420 kts | 292° |
| 2026-04-27 09:59 | 25.43267 | 55.27807 | 29852 ft | 432 kts | 292° |
| 2026-04-27 09:59 | 25.44544 | 55.24751 | 29858 ft | 443 kts | 292° |
| 2026-04-27 10:00 | 25.47241 | 55.18484 | 29857 ft | 462 kts | 293° |
| 2026-04-27 10:00 | 25.50041 | 55.12117 | 29850 ft | 465 kts | 294° |
| 2026-04-27 10:01 | 25.52918 | 55.05579 | 29847 ft | 469 kts | 294° |
| 2026-04-27 10:01 | 25.54319 | 55.02395 | 29861 ft | 453 kts | 294° |
| 2026-04-27 10:01 | 25.55708 | 54.99228 | 29849 ft | 457 kts | 293° |
| 2026-04-27 10:02 | 25.57067 | 54.96123 | 29856 ft | 439 kts | 293° |
| 2026-04-27 10:02 | 25.58373 | 54.93140 | 29861 ft | 421 kts | 293° |
| 2026-04-27 10:02 | 25.59626 | 54.90279 | 29859 ft | 405 kts | 294° |
| 2026-04-27 10:02 | 25.60989 | 54.87587 | 29857 ft | 397 kts | 299° |
| 2026-04-27 10:03 | 25.64502 | 54.82835 | 29855 ft | 402 kts | 309° |
| 2026-04-27 10:03 | 25.68501 | 54.78506 | 29854 ft | 404 kts | 312° |
| 2026-04-27 10:04 | 25.72625 | 54.74256 | 29851 ft | 405 kts | 313° |
| 2026-04-27 10:04 | 25.76757 | 54.69975 | 29849 ft | 412 kts | 311° |
| 2026-04-27 10:05 | 25.80259 | 54.64920 | 29849 ft | 413 kts | 294° |
| 2026-04-27 10:05 | 25.82373 | 54.59070 | 29854 ft | 410 kts | 286° |
| 2026-04-27 10:06 | 25.84159 | 54.53045 | 29851 ft | 410 kts | 285° |
| 2026-04-27 10:06 | 25.85942 | 54.47026 | 29850 ft | 410 kts | 286° |
| 2026-04-27 10:07 | 25.87783 | 54.41026 | 29854 ft | 410 kts | 286° |
| 2026-04-27 10:07 | 25.89655 | 54.35063 | 29851 ft | 411 kts | 287° |
| 2026-04-27 10:08 | 25.91614 | 54.29098 | 29853 ft | 412 kts | 291° |
| 2026-04-27 10:08 | 25.94208 | 54.23390 | 29856 ft | 414 kts | 295° |
| 2026-04-27 10:09 | 25.96953 | 54.17760 | 29857 ft | 414 kts | 295° |
| 2026-04-27 10:09 | 25.99680 | 54.12168 | 29856 ft | 414 kts | 294° |
| 2026-04-27 10:10 | 26.02399 | 54.06514 | 29856 ft | 414 kts | 294° |
| 2026-04-27 10:10 | 26.05100 | 54.00845 | 29856 ft | 414 kts | 294° |
| 2026-04-27 10:11 | 26.07860 | 53.95280 | 29852 ft | 415 kts | 297° |
| 2026-04-27 10:11 | 26.10977 | 53.89868 | 29853 ft | 415 kts | 299° |
| 2026-04-27 10:12 | 26.14188 | 53.84500 | 29855 ft | 415 kts | 300° |
| 2026-04-27 10:12 | 26.17411 | 53.79146 | 29854 ft | 416 kts | 299° |
| 2026-04-27 10:13 | 26.20606 | 53.73821 | 29861 ft | 415 kts | 299° |
| 2026-04-27 10:13 | 26.23803 | 53.68473 | 29859 ft | 415 kts | 299° |
| 2026-04-27 10:14 | 26.26996 | 53.63118 | 29857 ft | 415 kts | 299° |
| 2026-04-27 10:14 | 26.29653 | 53.58659 | 29855 ft | 414 kts | 299° |
| 2026-04-27 10:15 | 26.33351 | 53.52444 | 29860 ft | 414 kts | 299° |
| 2026-04-27 10:15 | 26.36017 | 53.47952 | 29860 ft | 414 kts | 299° |
| 2026-04-27 10:16 | 26.39172 | 53.42627 | 29862 ft | 414 kts | 299° |
| 2026-04-27 10:16 | 26.42346 | 53.37264 | 29862 ft | 414 kts | 299° |
| 2026-04-27 10:17 | 26.45514 | 53.31906 | 29873 ft | 413 kts | 298° |
| 2026-04-27 10:17 | 26.48672 | 53.26561 | 29865 ft | 412 kts | 298° |
| 2026-04-27 10:18 | 26.51830 | 53.21209 | 29864 ft | 412 kts | 298° |
| 2026-04-27 10:18 | 26.54979 | 53.15864 | 29864 ft | 412 kts | 298° |
| 2026-04-27 10:19 | 26.58126 | 53.10511 | 29866 ft | 412 kts | 298° |
| 2026-04-27 10:19 | 26.61248 | 53.05187 | 29878 ft | 412 kts | 298° |
| 2026-04-27 10:20 | 26.64382 | 52.99834 | 29868 ft | 411 kts | 298° |
| 2026-04-27 10:20 | 26.67513 | 52.94483 | 29871 ft | 411 kts | 298° |
| 2026-04-27 10:21 | 26.70644 | 52.89122 | 29870 ft | 411 kts | 298° |
| 2026-04-27 10:21 | 26.73753 | 52.83795 | 29870 ft | 411 kts | 298° |
| 2026-04-27 10:22 | 26.76878 | 52.78433 | 29886 ft | 411 kts | 298° |
| 2026-04-27 10:22 | 26.79997 | 52.73076 | 29871 ft | 410 kts | 298° |
| 2026-04-27 10:23 | 26.83115 | 52.67715 | 29875 ft | 410 kts | 298° |
| 2026-04-27 10:23 | 26.86223 | 52.62365 | 29877 ft | 410 kts | 298° |
| 2026-04-27 10:24 | 26.89330 | 52.57009 | 29882 ft | 410 kts | 298° |
| 2026-04-27 10:24 | 26.92416 | 52.51682 | 29881 ft | 410 kts | 298° |
| 2026-04-27 10:25 | 26.95514 | 52.46328 | 29880 ft | 409 kts | 298° |
| 2026-04-27 10:25 | 26.98612 | 52.40969 | 29881 ft | 409 kts | 298° |
| 2026-04-27 10:26 | 27.01703 | 52.35613 | 29878 ft | 409 kts | 298° |
| 2026-04-27 10:26 | 27.04795 | 52.30252 | 29888 ft | 409 kts | 298° |
| 2026-04-27 10:27 | 27.07882 | 52.24889 | 29890 ft | 409 kts | 298° |
| 2026-04-27 10:27 | 27.10946 | 52.19557 | 29887 ft | 409 kts | 298° |
| 2026-04-27 10:28 | 27.14028 | 52.14187 | 29891 ft | 409 kts | 298° |
| 2026-04-27 10:28 | 27.17112 | 52.08804 | 29891 ft | 409 kts | 298° |
| 2026-04-27 10:29 | 27.20191 | 52.03426 | 29886 ft | 409 kts | 298° |
| 2026-04-27 10:29 | 27.23264 | 51.98046 | 29889 ft | 408 kts | 298° |
| 2026-04-27 10:30 | 27.26312 | 51.92700 | 29889 ft | 409 kts | 297° |
| 2026-04-27 10:30 | 27.29378 | 51.87314 | 29890 ft | 409 kts | 297° |
| 2026-04-27 10:31 | 27.32441 | 51.81926 | 29892 ft | 409 kts | 297° |
| 2026-04-27 10:31 | 27.35507 | 51.76528 | 29893 ft | 408 kts | 297° |
| 2026-04-27 10:32 | 27.38538 | 51.71184 | 29893 ft | 408 kts | 297° |
| 2026-04-27 10:32 | 27.41592 | 51.65798 | 29893 ft | 408 kts | 297° |
| 2026-04-27 10:33 | 27.44648 | 51.60402 | 29896 ft | 408 kts | 297° |
| 2026-04-27 10:33 | 27.47699 | 51.55005 | 29893 ft | 408 kts | 297° |
| 2026-04-27 10:34 | 27.50741 | 51.49614 | 29896 ft | 408 kts | 297° |
| 2026-04-27 10:34 | 27.53780 | 51.44221 | 29915 ft | 408 kts | 297° |
| 2026-04-27 10:35 | 27.56825 | 51.38817 | 29894 ft | 408 kts | 297° |
| 2026-04-27 10:35 | 27.59846 | 51.33450 | 29892 ft | 408 kts | 297° |
| 2026-04-27 10:36 | 27.62882 | 51.28046 | 29896 ft | 407 kts | 297° |
| 2026-04-27 10:36 | 27.65910 | 51.22647 | 29899 ft | 407 kts | 297° |
| 2026-04-27 10:37 | 27.69210 | 51.17402 | 29890 ft | 413 kts | 305° |
| 2026-04-27 10:37 | 27.73104 | 51.12653 | 29891 ft | 416 kts | 308° |
| 2026-04-27 10:38 | 27.77178 | 51.07997 | 29904 ft | 416 kts | 308° |
| 2026-04-27 10:38 | 27.81275 | 51.03355 | 29889 ft | 416 kts | 308° |
| 2026-04-27 10:39 | 27.85364 | 50.98687 | 29917 ft | 424 kts | 308° |
| 2026-04-27 10:39 | 27.87456 | 50.96274 | 29902 ft | 436 kts | 308° |
| 2026-04-27 10:39 | 27.89585 | 50.93812 | 29900 ft | 445 kts | 308° |
| 2026-04-27 10:40 | 27.93934 | 50.88792 | 29906 ft | 446 kts | 308° |
| 2026-04-27 10:40 | 27.98285 | 50.83776 | 29908 ft | 446 kts | 308° |
| 2026-04-27 10:41 | 28.02633 | 50.78756 | 29923 ft | 446 kts | 308° |
| 2026-04-27 10:41 | 28.06982 | 50.73731 | 29910 ft | 447 kts | 308° |
| 2026-04-27 10:42 | 28.11331 | 50.68697 | 29911 ft | 447 kts | 308° |
| 2026-04-27 10:42 | 28.15651 | 50.63690 | 29912 ft | 447 kts | 308° |
| 2026-04-27 10:43 | 28.19999 | 50.58642 | 29914 ft | 447 kts | 308° |
| 2026-04-27 10:43 | 28.24347 | 50.53590 | 29915 ft | 447 kts | 308° |
| 2026-04-27 10:44 | 28.28697 | 50.48530 | 29916 ft | 447 kts | 308° |
| 2026-04-27 10:44 | 28.33035 | 50.43475 | 29914 ft | 447 kts | 308° |
| 2026-04-27 10:45 | 28.37346 | 50.38445 | 29919 ft | 447 kts | 308° |
| 2026-04-27 10:45 | 28.41682 | 50.33379 | 29917 ft | 447 kts | 307° |
| 2026-04-27 10:46 | 28.46016 | 50.28309 | 29919 ft | 447 kts | 307° |
| 2026-04-27 10:46 | 28.50344 | 50.23240 | 29922 ft | 447 kts | 307° |
| 2026-04-27 10:47 | 28.54674 | 50.18163 | 29917 ft | 447 kts | 307° |
| 2026-04-27 10:47 | 28.58964 | 50.13059 | 29925 ft | 446 kts | 307° |
| 2026-04-27 10:48 | 28.63196 | 50.07956 | 29925 ft | 445 kts | 307° |
| 2026-04-27 10:48 | 28.67446 | 50.02814 | 29942 ft | 445 kts | 306° |
| 2026-04-27 10:49 | 28.71695 | 49.97674 | 29925 ft | 445 kts | 306° |
| 2026-04-27 10:49 | 28.75911 | 49.92571 | 29928 ft | 444 kts | 307° |
| 2026-04-27 10:50 | 28.80156 | 49.87425 | 29931 ft | 444 kts | 306° |
| 2026-04-27 10:50 | 28.84397 | 49.82280 | 29934 ft | 444 kts | 306° |
| 2026-04-27 10:51 | 28.88604 | 49.77171 | 29933 ft | 443 kts | 306° |
| 2026-04-27 10:51 | 28.92827 | 49.72035 | 29933 ft | 443 kts | 306° |
| 2026-04-27 10:52 | 28.97047 | 49.66891 | 29933 ft | 443 kts | 306° |
| 2026-04-27 10:52 | 29.01267 | 49.61746 | 29933 ft | 443 kts | 306° |
| 2026-04-27 10:53 | 29.07565 | 49.54053 | 29933 ft | 443 kts | 306° |
| 2026-04-27 10:54 | 29.11704 | 49.48838 | 29936 ft | 441 kts | 305° |
| 2026-04-27 10:54 | 29.15735 | 49.43604 | 29937 ft | 440 kts | 304° |
| 2026-04-27 10:55 | 29.19776 | 49.38319 | 29939 ft | 441 kts | 304° |
| 2026-04-27 10:55 | 29.23812 | 49.33041 | 29939 ft | 441 kts | 304° |
| 2026-04-27 10:56 | 29.27857 | 49.27753 | 29935 ft | 440 kts | 304° |
| 2026-04-27 10:56 | 29.31895 | 49.22472 | 29936 ft | 440 kts | 304° |
| 2026-04-27 10:57 | 29.35922 | 49.17200 | 29939 ft | 440 kts | 304° |
| 2026-04-27 10:57 | 29.39931 | 49.11944 | 29939 ft | 440 kts | 304° |
| 2026-04-27 10:58 | 29.43956 | 49.06662 | 29940 ft | 439 kts | 304° |
| 2026-04-27 10:58 | 29.47984 | 49.01378 | 29934 ft | 439 kts | 304° |
| 2026-04-27 10:59 | 29.52022 | 48.96111 | 29936 ft | 439 kts | 304° |
| 2026-04-27 10:59 | 29.56064 | 48.90846 | 29933 ft | 439 kts | 304° |
| 2026-04-27 11:00 | 29.62126 | 48.82940 | 29930 ft | 439 kts | 304° |
| 2026-04-27 11:00 | 29.66137 | 48.77698 | 29926 ft | 439 kts | 304° |
| 2026-04-27 11:01 | 29.70146 | 48.72452 | 29925 ft | 441 kts | 304° |
| 2026-04-27 11:01 | 29.73512 | 48.68033 | 29942 ft | 440 kts | 304° |
| 2026-04-27 11:02 | 29.77549 | 48.62737 | 29936 ft | 439 kts | 304° |
| 2026-04-27 11:02 | 29.81577 | 48.57448 | 29932 ft | 438 kts | 304° |
| 2026-04-27 11:03 | 29.85598 | 48.52158 | 29929 ft | 438 kts | 304° |
| 2026-04-27 11:03 | 29.89903 | 48.47107 | 29928 ft | 444 kts | 309° |
| 2026-04-27 11:04 | 29.94457 | 48.42316 | 29934 ft | 446 kts | 310° |
| 2026-04-27 11:04 | 29.99108 | 48.37574 | 29926 ft | 446 kts | 311° |
| 2026-04-27 11:05 | 30.03775 | 48.32833 | 29925 ft | 446 kts | 310° |
| 2026-04-27 11:05 | 30.08435 | 48.28081 | 29915 ft | 446 kts | 310° |
| 2026-04-27 11:06 | 30.13084 | 48.23320 | 29912 ft | 446 kts | 310° |
| 2026-04-27 11:06 | 30.17726 | 48.18555 | 29932 ft | 447 kts | 310° |
| 2026-04-27 11:07 | 30.22378 | 48.13770 | 29898 ft | 448 kts | 310° |
| 2026-04-27 11:07 | 30.27004 | 48.09007 | 29884 ft | 448 kts | 310° |
| 2026-04-27 11:08 | 30.31659 | 48.04209 | 29891 ft | 448 kts | 310° |
| 2026-04-27 11:08 | 30.36313 | 47.99407 | 29886 ft | 447 kts | 310° |
| 2026-04-27 11:09 | 30.40934 | 47.94633 | 29898 ft | 447 kts | 310° |
| 2026-04-27 11:09 | 30.45581 | 47.89826 | 29878 ft | 447 kts | 310° |
| 2026-04-27 11:10 | 30.50221 | 47.85017 | 29892 ft | 447 kts | 310° |
| 2026-04-27 11:10 | 30.54860 | 47.80205 | 29910 ft | 447 kts | 310° |
| 2026-04-27 11:11 | 30.59488 | 47.75397 | 29912 ft | 446 kts | 310° |
| 2026-04-27 11:11 | 30.64078 | 47.70622 | 29920 ft | 446 kts | 310° |
| 2026-04-27 11:12 | 30.68705 | 47.65801 | 29906 ft | 446 kts | 310° |
| 2026-04-27 11:12 | 30.73324 | 47.60983 | 29901 ft | 446 kts | 310° |
| 2026-04-27 11:13 | 30.77941 | 47.56159 | 29897 ft | 446 kts | 310° |
| 2026-04-27 11:13 | 30.82527 | 47.51363 | 29890 ft | 445 kts | 310° |
| 2026-04-27 11:14 | 30.87140 | 47.46529 | 29885 ft | 446 kts | 310° |
| 2026-04-27 11:14 | 30.91754 | 47.41684 | 29909 ft | 446 kts | 310° |
| 2026-04-27 11:15 | 30.96352 | 47.36847 | 29883 ft | 445 kts | 310° |
| 2026-04-27 11:15 | 31.00918 | 47.32037 | 29884 ft | 445 kts | 310° |
| 2026-04-27 11:16 | 31.05507 | 47.27197 | 29881 ft | 445 kts | 310° |
| 2026-04-27 11:16 | 31.10104 | 47.22342 | 29881 ft | 444 kts | 310° |
| 2026-04-27 11:17 | 31.14655 | 47.17529 | 29877 ft | 444 kts | 310° |
| 2026-04-27 11:17 | 31.19228 | 47.12685 | 29882 ft | 444 kts | 310° |
| 2026-04-27 11:18 | 31.23797 | 47.07839 | 29881 ft | 443 kts | 310° |
| 2026-04-27 11:18 | 31.28365 | 47.02988 | 29881 ft | 443 kts | 310° |
| 2026-04-27 11:19 | 31.32931 | 46.98132 | 29880 ft | 443 kts | 310° |
| 2026-04-27 11:19 | 31.37463 | 46.93309 | 29885 ft | 443 kts | 310° |
| 2026-04-27 11:20 | 31.42028 | 46.88454 | 29882 ft | 443 kts | 310° |
| 2026-04-27 11:20 | 31.46595 | 46.83595 | 29882 ft | 443 kts | 310° |
| 2026-04-27 11:21 | 31.48858 | 46.81190 | 29896 ft | 431 kts | 310° |
| 2026-04-27 11:21 | 31.51040 | 46.78885 | 29897 ft | 414 kts | 310° |
| 2026-04-27 11:21 | 31.53138 | 46.76673 | 29891 ft | 399 kts | 310° |
| 2026-04-27 11:21 | 31.55182 | 46.74511 | 29891 ft | 394 kts | 310° |
| 2026-04-27 11:22 | 31.59218 | 46.70198 | 29884 ft | 395 kts | 310° |
| 2026-04-27 11:22 | 31.63276 | 46.65843 | 29903 ft | 395 kts | 310° |
| 2026-04-27 11:23 | 31.67332 | 46.61488 | 29889 ft | 395 kts | 310° |
| 2026-04-27 11:23 | 31.71398 | 46.57123 | 29969 ft | 395 kts | 310° |
| 2026-04-27 11:24 | 31.75459 | 46.52765 | 29977 ft | 396 kts | 310° |
| 2026-04-27 11:24 | 31.79517 | 46.48402 | 29978 ft | 395 kts | 310° |
| 2026-04-27 11:25 | 31.83555 | 46.44054 | 29982 ft | 396 kts | 310° |
| 2026-04-27 11:25 | 31.87623 | 46.39669 | 29982 ft | 396 kts | 310° |
| 2026-04-27 11:26 | 31.91684 | 46.35287 | 29985 ft | 395 kts | 310° |
| 2026-04-27 11:26 | 31.95741 | 46.30902 | 29984 ft | 395 kts | 310° |
| 2026-04-27 11:27 | 31.99800 | 46.26509 | 29990 ft | 396 kts | 310° |
| 2026-04-27 11:27 | 32.03826 | 46.22148 | 30002 ft | 396 kts | 310° |
| 2026-04-27 11:28 | 32.07878 | 46.17752 | 29996 ft | 395 kts | 310° |
| 2026-04-27 11:28 | 32.11922 | 46.13358 | 29991 ft | 395 kts | 310° |
| 2026-04-27 11:29 | 32.15970 | 46.08956 | 29987 ft | 395 kts | 311° |
| 2026-04-27 11:29 | 32.20013 | 46.04555 | 29994 ft | 395 kts | 310° |
| 2026-04-27 11:30 | 32.24029 | 46.00179 | 29990 ft | 395 kts | 310° |
| 2026-04-27 11:30 | 32.28076 | 45.95763 | 29991 ft | 395 kts | 310° |
| 2026-04-27 11:31 | 32.32124 | 45.91339 | 30000 ft | 395 kts | 311° |
| 2026-04-27 11:31 | 32.36129 | 45.86952 | 30004 ft | 394 kts | 311° |
| 2026-04-27 11:32 | 32.40158 | 45.82529 | 29997 ft | 394 kts | 311° |
| 2026-04-27 11:32 | 32.44175 | 45.78110 | 30014 ft | 394 kts | 311° |
| 2026-04-27 11:33 | 32.48191 | 45.73678 | 30013 ft | 395 kts | 312° |
| 2026-04-27 11:33 | 32.52192 | 45.69256 | 29958 ft | 400 kts | 312° |
| 2026-04-27 11:34 | 32.54260 | 45.66960 | 29673 ft | 413 kts | 312° |
| 2026-04-27 11:34 | 32.56367 | 45.64621 | 29398 ft | 415 kts | 312° |
| 2026-04-27 11:34 | 32.58475 | 45.62283 | 29135 ft | 415 kts | 313° |
| 2026-04-27 11:34 | 32.60590 | 45.59937 | 28863 ft | 415 kts | 313° |
| 2026-04-27 11:35 | 32.62704 | 45.57594 | 28590 ft | 414 kts | 313° |
| 2026-04-27 11:35 | 32.64785 | 45.55291 | 28331 ft | 414 kts | 313° |
| 2026-04-27 11:35 | 32.66894 | 45.52959 | 28066 ft | 413 kts | 313° |
| 2026-04-27 11:35 | 32.68990 | 45.50642 | 27817 ft | 411 kts | 313° |
| 2026-04-27 11:36 | 32.71083 | 45.48328 | 27580 ft | 411 kts | 313° |
| 2026-04-27 11:36 | 32.73177 | 45.46010 | 27323 ft | 411 kts | 313° |
| 2026-04-27 11:36 | 32.75268 | 45.43696 | 27072 ft | 410 kts | 313° |
| 2026-04-27 11:36 | 32.77356 | 45.41383 | 26813 ft | 409 kts | 313° |
| 2026-04-27 11:37 | 32.79428 | 45.39088 | 26562 ft | 404 kts | 313° |
| 2026-04-27 11:37 | 32.81444 | 45.36811 | 26201 ft | 395 kts | 310° |
| 2026-04-27 11:37 | 32.83132 | 45.34286 | 25762 ft | 387 kts | 302° |
| 2026-04-27 11:37 | 32.84610 | 45.31627 | 25288 ft | 383 kts | 300° |
| 2026-04-27 11:38 | 32.86016 | 45.28963 | 24833 ft | 379 kts | 299° |
| 2026-04-27 11:38 | 32.87396 | 45.26309 | 24377 ft | 376 kts | 299° |
| 2026-04-27 11:38 | 32.88746 | 45.23705 | 23916 ft | 373 kts | 299° |
| 2026-04-27 11:38 | 32.90101 | 45.21086 | 23470 ft | 370 kts | 299° |
| 2026-04-27 11:39 | 32.91444 | 45.18491 | 22960 ft | 366 kts | 299° |
| 2026-04-27 11:39 | 32.92772 | 45.15926 | 22521 ft | 361 kts | 299° |
| 2026-04-27 11:39 | 32.94081 | 45.13397 | 22075 ft | 357 kts | 299° |
| 2026-04-27 11:39 | 32.95380 | 45.10886 | 21631 ft | 353 kts | 299° |
| 2026-04-27 11:40 | 32.96664 | 45.08404 | 21205 ft | 350 kts | 299° |
| 2026-04-27 11:40 | 32.97920 | 45.05972 | 20752 ft | 347 kts | 299° |
| 2026-04-27 11:40 | 32.99182 | 45.03527 | 20322 ft | 345 kts | 299° |
| 2026-04-27 11:40 | 33.00449 | 45.01067 | 19847 ft | 353 kts | 299° |
| 2026-04-27 11:41 | 33.01747 | 44.98540 | 19052 ft | 361 kts | 299° |
| 2026-04-27 11:41 | 33.03047 | 44.95929 | 18159 ft | 369 kts | 295° |
| 2026-04-27 11:41 | 33.04041 | 44.93114 | 17346 ft | 368 kts | 284° |
| 2026-04-27 11:41 | 33.04482 | 44.90160 | 16995 ft | 355 kts | 275° |
| 2026-04-27 11:42 | 33.04698 | 44.87278 | 16755 ft | 345 kts | 273° |
| 2026-04-27 11:42 | 33.04860 | 44.84464 | 16500 ft | 343 kts | 272° |
| 2026-04-27 11:42 | 33.05014 | 44.81625 | 16244 ft | 343 kts | 272° |
| 2026-04-27 11:42 | 33.05168 | 44.78791 | 16013 ft | 342 kts | 272° |
| 2026-04-27 11:43 | 33.05323 | 44.75968 | 15761 ft | 341 kts | 272° |
| 2026-04-27 11:43 | 33.05479 | 44.73149 | 15510 ft | 338 kts | 272° |
| 2026-04-27 11:43 | 33.05632 | 44.70408 | 15276 ft | 326 kts | 272° |
| 2026-04-27 11:43 | 33.05782 | 44.67758 | 15037 ft | 315 kts | 272° |
| 2026-04-27 11:44 | 33.05927 | 44.65196 | 14796 ft | 305 kts | 272° |
| 2026-04-27 11:44 | 33.06069 | 44.62710 | 14574 ft | 296 kts | 272° |
| 2026-04-27 11:44 | 33.06206 | 44.60298 | 14348 ft | 287 kts | 272° |
| 2026-04-27 11:44 | 33.06338 | 44.57953 | 14116 ft | 280 kts | 272° |
| 2026-04-27 11:45 | 33.06466 | 44.55674 | 13950 ft | 271 kts | 271° |
| 2026-04-27 11:45 | 33.06548 | 44.54208 | 13805 ft | 266 kts | 271° |
| 2026-04-27 11:45 | 33.06712 | 44.51243 | 13135 ft | 270 kts | 271° |
| 2026-04-27 11:45 | 33.06833 | 44.48992 | 12619 ft | 273 kts | 271° |
| 2026-04-27 11:46 | 33.06956 | 44.46716 | 12113 ft | 276 kts | 271° |
| 2026-04-27 11:46 | 33.07076 | 44.44460 | 11700 ft | 275 kts | 271° |
| 2026-04-27 11:46 | 33.07197 | 44.42224 | 11541 ft | 265 kts | 271° |
| 2026-04-27 11:46 | 33.07314 | 44.40075 | 11416 ft | 254 kts | 271° |
| 2026-04-27 11:47 | 33.07422 | 44.38014 | 11265 ft | 246 kts | 270° |
| 2026-04-27 11:47 | 33.07302 | 44.36010 | 11026 ft | 239 kts | 254° |
| 2026-04-27 11:47 | 33.06562 | 44.34278 | 10797 ft | 235 kts | 229° |
| 2026-04-27 11:47 | 33.05740 | 44.33449 | 10631 ft | 235 kts | 212° |
| 2026-04-27 11:48 | 33.04181 | 44.32895 | 10404 ft | 239 kts | 185° |
| 2026-04-27 11:48 | 33.02552 | 44.33343 | 10175 ft | 247 kts | 156° |
| 2026-04-27 11:48 | 33.01294 | 44.34765 | 9938 ft | 256 kts | 124° |
| 2026-04-27 11:48 | 33.00786 | 44.36809 | 9706 ft | 261 kts | 96° |
| 2026-04-27 11:49 | 33.00765 | 44.38973 | 9451 ft | 261 kts | 90° |
| 2026-04-27 11:49 | 33.00811 | 44.41129 | 9199 ft | 259 kts | 91° |
| 2026-04-27 11:49 | 33.00826 | 44.43272 | 8942 ft | 257 kts | 92° |
| 2026-04-27 11:49 | 33.00805 | 44.45398 | 8690 ft | 256 kts | 93° |
| 2026-04-27 11:50 | 33.00761 | 44.47507 | 8441 ft | 254 kts | 94° |
| 2026-04-27 11:50 | 33.00756 | 44.49604 | 8194 ft | 253 kts | 86° |
| 2026-04-27 11:50 | 33.01321 | 44.51574 | 7947 ft | 254 kts | 54° |
| 2026-04-27 11:50 | 33.02647 | 44.52863 | 7715 ft | 249 kts | 19° |
| 2026-04-27 11:51 | 33.04315 | 44.53126 | 7477 ft | 240 kts | 347° |
| 2026-04-27 11:51 | 33.05805 | 44.52371 | 7225 ft | 229 kts | 316° |
| 2026-04-27 11:51 | 33.07040 | 44.49150 | 6763 ft | 215 kts | 271° |
| 2026-04-27 11:52 | 33.07108 | 44.47392 | 6518 ft | 214 kts | 268° |
| 2026-04-27 11:52 | 33.07149 | 44.45615 | 6275 ft | 215 kts | 269° |
| 2026-04-27 11:52 | 33.07198 | 44.43832 | 6030 ft | 215 kts | 269° |
| 2026-04-27 11:52 | 33.07262 | 44.42053 | 5785 ft | 214 kts | 269° |
| 2026-04-27 11:53 | 33.07332 | 44.40275 | 5541 ft | 215 kts | 269° |
| 2026-04-27 11:53 | 33.07546 | 44.38516 | 5262 ft | 218 kts | 293° |
| 2026-04-27 11:53 | 33.08434 | 44.37062 | 5074 ft | 218 kts | 313° |
| 2026-04-27 11:53 | 33.09644 | 44.35984 | 4745 ft | 224 kts | 327° |
| 2026-04-27 11:54 | 33.11042 | 44.35054 | 4240 ft | 236 kts | 329° |
| 2026-04-27 11:54 | 33.12501 | 44.34073 | 3745 ft | 246 kts | 329° |
| 2026-04-27 11:54 | 33.14008 | 44.33043 | 3269 ft | 253 kts | 329° |
| 2026-04-27 11:54 | 33.15552 | 44.31971 | 2767 ft | 259 kts | 329° |
| 2026-04-27 11:55 | 33.17133 | 44.30866 | 2262 ft | 266 kts | 331° |
| 2026-04-27 11:55 | 33.18740 | 44.29752 | 1808 ft | 268 kts | 331° |
| 2026-04-27 11:55 | 33.20355 | 44.28641 | 1389 ft | 268 kts | 333° |
| 2026-04-27 11:55 | 33.21967 | 44.27537 | 1060 ft | 264 kts | 333° |
| 2026-04-27 11:56 | 33.23537 | 44.26457 | 885 ft | 257 kts | 332° |
| 2026-04-27 11:56 | 33.25062 | 44.25409 | 729 ft | 248 kts | 332° |
| 2026-04-27 11:56 | 33.26535 | 44.24394 | 569 ft | 240 kts | 332° |
| 2026-04-27 11:56 | 33.27965 | 44.23409 | 406 ft | 234 kts | 330° |
| 2026-04-27 11:57 | 33.29342 | 44.22459 | 218 ft | 230 kts | 330° |